createdAt,value
2023-03-04T00:00:26.234Z,5.00
2023-03-04T00:03:16.003Z,5.00
2023-03-04T00:06:03.723Z,5.00
2023-03-04T00:08:53.058Z,5.00
2023-03-04T00:11:42.391Z,5.00
2023-03-04T00:14:31.726Z,5.00
2023-03-04T00:17:22.485Z,5.00
2023-03-04T00:20:13.535Z,5.00
2023-03-04T00:23:00.988Z,5.00
2023-03-04T00:25:48.650Z,5.00
2023-03-04T00:28:39.219Z,5.00
2023-03-04T00:31:26.671Z,5.00
2023-03-04T00:34:15.816Z,4.90
2023-03-04T00:37:05.224Z,4.90
2023-03-04T00:39:54.571Z,4.90
2023-03-04T00:42:43.976Z,4.90
2023-03-04T00:45:33.334Z,4.90
2023-03-04T00:48:20.842Z,4.90
2023-03-04T00:51:09.650Z,4.90
2023-03-04T00:53:59.701Z,4.90
2023-03-04T00:56:48.640Z,4.90
2023-03-04T00:59:38.021Z,4.90
2023-03-04T01:02:27.682Z,4.90
2023-03-04T01:05:15.710Z,4.90
2023-03-04T01:08:06.431Z,4.90
2023-03-04T01:10:55.746Z,4.90
2023-03-04T01:13:45.067Z,4.90
2023-03-04T01:16:34.689Z,5.00
2023-03-04T01:19:24.268Z,4.90
2023-03-04T01:22:15.186Z,5.00
2023-03-04T01:25:07.006Z,5.00
2023-03-04T01:27:56.294Z,5.00
2023-03-04T01:30:45.640Z,5.00
2023-03-04T01:33:35.013Z,5.00
2023-03-04T01:36:26.026Z,5.00
2023-03-04T01:39:15.319Z,5.10
2023-03-04T01:42:06.555Z,5.00
2023-03-04T01:44:55.858Z,5.00
2023-03-04T01:47:49.347Z,5.00
2023-03-04T01:50:37.101Z,5.10
2023-03-04T01:53:27.728Z,5.00
2023-03-04T01:56:20.817Z,5.00
2023-03-04T01:59:14.720Z,5.00
2023-03-04T02:02:04.179Z,5.00
2023-03-04T02:04:51.977Z,5.00
2023-03-04T02:07:39.976Z,5.00
2023-03-04T02:10:30.653Z,5.00
2023-03-04T02:13:18.674Z,5.10
2023-03-04T02:16:09.588Z,5.10
2023-03-04T02:18:59.356Z,5.10
2023-03-04T02:21:47.861Z,5.10
2023-03-04T02:24:42.721Z,5.10
2023-03-04T02:27:31.372Z,5.10
2023-03-04T02:30:25.335Z,5.10
2023-03-04T02:33:20.071Z,5.10
2023-03-04T02:36:09.966Z,5.20
2023-03-04T02:39:03.266Z,5.20
2023-03-04T02:41:55.964Z,5.20
2023-03-04T02:44:50.361Z,5.20
2023-03-04T02:47:40.421Z,5.20
2023-03-04T02:50:35.887Z,5.20
2023-03-04T02:53:25.442Z,5.20
2023-03-04T02:56:13.512Z,5.20
2023-03-04T02:59:02.810Z,5.20
2023-03-04T03:01:52.538Z,5.20
2023-03-04T03:04:43.018Z,5.20
2023-03-04T03:07:34.891Z,5.20
2023-03-04T03:10:25.637Z,5.20
2023-03-04T03:13:13.288Z,5.10
2023-03-04T03:16:01.482Z,5.10
2023-03-04T03:18:52.474Z,5.10
2023-03-04T03:21:41.116Z,5.10
2023-03-04T03:24:28.665Z,5.10
2023-03-04T03:27:18.684Z,5.00
2023-03-04T03:30:09.520Z,5.00
2023-03-04T03:32:58.096Z,5.00
2023-03-04T03:35:49.063Z,5.00
2023-03-04T03:38:36.953Z,5.00
2023-03-04T03:41:26.327Z,5.00
2023-03-04T03:44:13.930Z,5.00
2023-03-04T03:47:04.100Z,5.00
2023-03-04T03:49:51.753Z,5.00
2023-03-04T03:52:40.784Z,4.90
2023-03-04T03:55:30.094Z,4.90
2023-03-04T03:58:17.934Z,5.00
2023-03-04T04:01:07.302Z,4.90
2023-03-04T04:03:55.096Z,4.90
2023-03-04T04:06:42.560Z,4.90
2023-03-04T04:09:33.252Z,4.90
2023-03-04T04:12:22.594Z,4.90
2023-03-04T04:15:13.228Z,4.90
2023-03-04T04:18:00.788Z,4.90
2023-03-04T04:20:50.085Z,4.90
2023-03-04T04:23:39.375Z,4.90
2023-03-04T04:26:30.074Z,4.90
2023-03-04T04:29:20.314Z,4.90
2023-03-04T04:32:09.965Z,4.90
2023-03-04T04:34:59.321Z,4.90
2023-03-04T04:37:48.678Z,5.00
2023-03-04T04:40:38.608Z,5.00
2023-03-04T04:43:29.280Z,5.00
2023-03-04T04:46:19.152Z,5.00
2023-03-04T04:49:07.645Z,5.00
2023-03-04T04:51:55.473Z,5.00
2023-03-04T04:54:44.810Z,5.00
2023-03-04T04:57:35.592Z,5.00
2023-03-04T05:00:26.486Z,5.00
2023-03-04T05:03:18.297Z,5.00
2023-03-04T05:06:10.491Z,5.00
2023-03-04T05:08:59.786Z,5.00
2023-03-04T05:11:49.088Z,5.00
2023-03-04T05:14:36.648Z,5.00
2023-03-04T05:17:27.331Z,5.10
2023-03-04T05:20:16.875Z,5.00
2023-03-04T05:23:06.353Z,5.10
2023-03-04T05:25:56.020Z,5.10
2023-03-04T05:28:43.632Z,5.10
2023-03-04T05:31:31.923Z,5.10
2023-03-04T05:34:22.593Z,5.10
2023-03-04T05:37:11.895Z,5.10
2023-03-04T05:40:01.219Z,5.10
2023-03-04T05:42:50.530Z,5.10
2023-03-04T05:45:40.374Z,5.10
2023-03-04T05:48:29.764Z,5.10
2023-03-04T05:51:20.858Z,5.10
2023-03-04T05:54:10.149Z,5.10
2023-03-04T05:56:59.583Z,5.10
2023-03-04T05:59:48.853Z,5.20
2023-03-04T06:02:38.867Z,5.20
2023-03-04T06:05:28.205Z,5.20
2023-03-04T06:08:18.924Z,5.20
2023-03-04T06:11:08.663Z,5.20
2023-03-04T06:13:58.051Z,5.20
2023-03-04T06:16:47.460Z,5.20
2023-03-04T06:19:38.032Z,5.20
2023-03-04T06:22:27.420Z,5.20
2023-03-04T06:25:18.586Z,5.20
2023-03-04T06:28:07.903Z,5.30
2023-03-04T06:30:59.130Z,5.30
2023-03-04T06:33:48.432Z,5.30
2023-03-04T06:36:37.887Z,5.30
2023-03-04T06:39:27.434Z,5.30
2023-03-04T06:42:18.219Z,5.40
2023-03-04T06:45:09.488Z,5.40
2023-03-04T06:47:58.785Z,5.40
2023-03-04T06:50:48.091Z,5.40
2023-03-04T06:53:37.869Z,5.40
2023-03-04T06:56:27.156Z,5.50
2023-03-04T06:59:18.060Z,5.50
2023-03-04T07:02:08.470Z,5.60
2023-03-04T07:04:57.736Z,5.60
2023-03-04T07:07:47.072Z,5.60
2023-03-04T07:10:36.504Z,5.70
2023-03-04T07:13:25.824Z,5.70
2023-03-04T07:16:19.947Z,5.70
2023-03-04T07:19:09.325Z,5.70
2023-03-04T07:21:58.735Z,5.80
2023-03-04T07:24:48.017Z,5.80
2023-03-04T07:27:38.647Z,5.80
2023-03-04T07:30:27.938Z,5.80
2023-03-04T07:33:19.572Z,5.90
2023-03-04T07:36:09.207Z,5.90
2023-03-04T07:38:58.712Z,5.90
2023-03-04T07:41:46.218Z,5.90
2023-03-04T07:44:33.837Z,5.90
2023-03-04T07:47:22.015Z,6.00
2023-03-04T07:50:17.584Z,6.00
2023-03-04T07:53:07.219Z,6.00
2023-03-04T07:55:56.500Z,6.10
2023-03-04T07:58:46.505Z,6.10
2023-03-04T08:01:38.701Z,6.10
2023-03-04T08:04:28.108Z,6.20
2023-03-04T08:07:18.877Z,6.20
2023-03-04T08:10:09.794Z,6.20
2023-03-04T08:12:59.469Z,6.30
2023-03-04T08:15:49.039Z,6.30
2023-03-04T08:18:39.754Z,6.30
2023-03-04T08:21:29.854Z,6.30
2023-03-04T08:24:18.766Z,6.40
2023-03-04T08:27:06.995Z,6.40
2023-03-04T08:29:56.695Z,6.50
2023-03-04T08:32:46.174Z,6.50
2023-03-04T08:35:38.231Z,6.60
2023-03-04T08:38:26.149Z,6.70
2023-03-04T08:41:16.851Z,6.80
2023-03-04T08:44:05.197Z,7.00
2023-03-04T08:46:52.795Z,7.10
2023-03-04T08:49:42.138Z,7.20
2023-03-04T08:52:31.846Z,7.30
2023-03-04T08:55:22.537Z,7.40
2023-03-04T08:58:14.494Z,7.60
2023-03-04T09:01:05.289Z,7.60
2023-03-04T09:03:54.735Z,7.70
2023-03-04T09:06:44.164Z,7.70
2023-03-04T09:09:33.480Z,7.80
2023-03-04T09:12:22.814Z,7.80
2023-03-04T09:15:14.641Z,7.80
2023-03-04T09:18:04.270Z,7.80
2023-03-04T09:20:53.721Z,7.80
2023-03-04T09:23:43.342Z,7.90
2023-03-04T09:26:32.809Z,7.90
2023-03-04T09:29:23.466Z,7.90
2023-03-04T09:32:12.738Z,7.90
2023-03-04T09:35:00.577Z,7.90
2023-03-04T09:37:49.011Z,8.00
2023-03-04T09:40:43.520Z,8.00
2023-03-04T09:43:32.225Z,8.00
2023-03-04T09:46:34.277Z,8.10
2023-03-04T09:49:24.183Z,8.10
2023-03-04T09:52:22.898Z,8.20
2023-03-04T09:55:22.604Z,8.20
2023-03-04T09:58:29.662Z,8.30
2023-03-04T10:01:26.674Z,8.30
2023-03-04T10:04:21.824Z,8.40
2023-03-04T10:07:20.166Z,8.40
2023-03-04T10:10:15.322Z,8.50
2023-03-04T10:13:05.046Z,8.50
2023-03-04T10:15:54.260Z,8.60
2023-03-04T10:18:51.121Z,8.60
2023-03-04T10:21:44.717Z,8.70
2023-03-04T10:24:36.721Z,8.70
2023-03-04T10:27:26.885Z,8.70
2023-03-04T10:30:37.534Z,8.80
2023-03-04T10:33:31.168Z,8.80
2023-03-04T10:36:38.017Z,8.90
2023-03-04T10:39:31.199Z,8.90
2023-03-04T10:42:37.366Z,8.90
2023-03-04T10:45:35.371Z,8.90
2023-03-04T10:48:27.467Z,9.00
2023-03-04T10:51:22.830Z,9.00
2023-03-04T10:54:28.969Z,9.10
2023-03-04T10:57:19.690Z,9.10
2023-03-04T11:00:28.720Z,9.10
2023-03-04T11:03:33.406Z,9.10
2023-03-04T11:06:23.648Z,9.20
2023-03-04T11:09:24.918Z,9.20
2023-03-04T11:12:17.971Z,9.20
2023-03-04T11:15:24.351Z,9.20
2023-03-04T11:18:15.598Z,9.30
2023-03-04T11:21:05.747Z,9.20
2023-03-04T11:23:59.030Z,9.20
2023-03-04T11:26:52.844Z,9.20
2023-03-04T11:29:47.996Z,9.20
2023-03-04T11:32:45.504Z,9.20
2023-03-04T11:35:43.633Z,9.20
2023-03-04T11:38:38.945Z,9.20
2023-03-04T11:41:33.777Z,9.20
2023-03-04T11:44:23.080Z,9.20
2023-03-04T11:47:48.797Z,9.30
2023-03-04T11:50:47.911Z,9.40
2023-03-04T11:53:55.439Z,9.50
2023-03-04T11:56:47.298Z,9.50
2023-03-04T11:59:57.211Z,9.60
2023-03-04T12:03:02.153Z,9.60
2023-03-04T12:05:59.952Z,9.60
2023-03-04T12:09:04.642Z,9.60
2023-03-04T12:12:05.286Z,9.60
2023-03-04T12:15:08.179Z,9.60
2023-03-04T12:18:37.119Z,9.60
2023-03-04T12:21:57.859Z,9.60
2023-03-04T12:25:16.683Z,9.60
2023-03-04T12:28:43.305Z,9.60
2023-03-04T12:31:39.129Z,9.70
2023-03-04T12:35:07.315Z,9.60
2023-03-04T12:38:17.386Z,9.70
2023-03-04T12:41:36.089Z,9.70
2023-03-04T12:44:25.516Z,9.70
2023-03-04T12:47:28.322Z,9.80
2023-03-04T12:50:33.273Z,9.80
2023-03-04T12:53:31.098Z,9.90
2023-03-04T12:56:28.052Z,10.00
2023-03-04T12:59:20.998Z,10.00
2023-03-04T13:02:36.983Z,10.00
2023-03-04T13:05:57.309Z,10.10
2023-03-04T13:08:59.385Z,10.10
2023-03-04T13:12:04.490Z,10.10
2023-03-04T13:15:32.230Z,10.10
2023-03-04T13:18:36.282Z,10.10
2023-03-04T13:21:29.448Z,10.00
2023-03-04T13:24:50.247Z,10.00
2023-03-04T13:28:13.865Z,9.90
2023-03-04T13:31:18.698Z,9.80
2023-03-04T13:34:49.326Z,9.80
2023-03-04T13:37:39.021Z,9.80
2023-03-04T13:40:38.411Z,9.80
2023-03-04T13:43:30.245Z,9.80
2023-03-04T13:46:44.120Z,9.80
2023-03-04T13:49:31.725Z,9.80
2023-03-04T13:52:47.498Z,9.90
2023-03-04T13:55:40.006Z,9.90
2023-03-04T13:58:29.342Z,9.90
2023-03-04T14:01:28.905Z,9.90
2023-03-04T14:04:20.767Z,10.00
2023-03-04T14:07:25.870Z,10.00
2023-03-04T14:10:26.330Z,10.00
2023-03-04T14:13:15.714Z,10.00
2023-03-04T14:16:05.723Z,10.00
2023-03-04T14:19:03.509Z,10.00
2023-03-04T14:21:53.061Z,10.00
2023-03-04T14:24:42.344Z,10.00
2023-03-04T14:27:36.272Z,9.90
2023-03-04T14:30:41.738Z,9.90
2023-03-04T14:33:32.495Z,9.90
2023-03-04T14:36:24.447Z,9.90
2023-03-04T14:39:19.400Z,9.90
2023-03-04T14:42:12.841Z,9.90
2023-03-04T14:45:04.375Z,9.90
2023-03-04T14:47:58.329Z,9.90
2023-03-04T14:50:50.474Z,9.80
2023-03-04T14:53:56.071Z,9.80
2023-03-04T14:56:46.043Z,9.80
2023-03-04T14:59:37.178Z,9.70
2023-03-04T15:02:33.633Z,9.70
2023-03-04T15:05:27.328Z,9.60
2023-03-04T15:08:25.177Z,9.60
2023-03-04T15:11:24.210Z,9.60
2023-03-04T15:14:45.350Z,9.60
2023-03-04T15:17:42.605Z,9.50
2023-03-04T15:20:33.496Z,9.50
2023-03-04T15:23:22.867Z,9.50
2023-03-04T15:26:14.224Z,9.50
2023-03-04T15:29:11.772Z,9.50
2023-03-04T15:32:01.325Z,9.50
2023-03-04T15:34:52.115Z,9.50
2023-03-04T15:37:42.821Z,9.50
2023-03-04T15:40:34.882Z,9.50
2023-03-04T15:43:25.433Z,9.50
2023-03-04T15:46:16.891Z,9.40
2023-03-04T15:49:07.098Z,9.40
2023-03-04T15:51:57.866Z,9.40
2023-03-04T15:54:47.924Z,9.30
2023-03-04T15:57:37.287Z,9.30
2023-03-04T16:00:27.298Z,9.30
2023-03-04T16:03:19.034Z,9.20
2023-03-04T16:06:12.383Z,9.20
2023-03-04T16:09:07.083Z,9.10
2023-03-04T16:12:01.798Z,9.10
2023-03-04T16:14:51.279Z,9.10
2023-03-04T16:17:43.891Z,9.00
2023-03-04T16:20:33.531Z,9.00
2023-03-04T16:23:25.121Z,8.90
2023-03-04T16:26:20.333Z,8.90
2023-03-04T16:29:11.267Z,8.90
2023-03-04T16:32:00.632Z,8.90
2023-03-04T16:34:50.432Z,8.80
2023-03-04T16:37:40.397Z,8.80
2023-03-04T16:40:31.921Z,8.80
2023-03-04T16:43:23.074Z,8.70
2023-03-04T16:46:14.026Z,8.70
2023-03-04T16:49:03.297Z,8.70
2023-03-04T16:51:52.785Z,8.60
2023-03-04T16:54:42.359Z,8.60
2023-03-04T16:57:31.725Z,8.50
2023-03-04T17:00:25.437Z,8.50
2023-03-04T17:03:14.773Z,8.50
2023-03-04T17:06:04.089Z,8.40
2023-03-04T17:08:53.425Z,8.40
2023-03-04T17:11:42.708Z,8.30
2023-03-04T17:14:32.071Z,8.20
2023-03-04T17:17:23.030Z,8.20
2023-03-04T17:20:15.362Z,8.20
2023-03-04T17:23:04.711Z,8.20
2023-03-04T17:25:58.093Z,8.10
2023-03-04T17:28:47.534Z,8.10
2023-03-04T17:31:38.132Z,8.00
2023-03-04T17:34:28.892Z,8.00
2023-03-04T17:37:18.163Z,8.00
2023-03-04T17:40:11.286Z,7.90
2023-03-04T17:43:01.047Z,7.90
2023-03-04T17:45:50.400Z,7.90
2023-03-04T17:48:40.412Z,7.80
2023-03-04T17:51:37.089Z,7.80
2023-03-04T17:54:27.006Z,7.80
2023-03-04T17:57:16.339Z,7.80
2023-03-04T18:00:07.342Z,7.80
2023-03-04T18:02:56.694Z,7.80
2023-03-04T18:05:46.058Z,7.80
2023-03-04T18:08:36.785Z,7.70
2023-03-04T18:11:28.170Z,7.80
2023-03-04T18:14:17.649Z,7.70
2023-03-04T18:17:07.100Z,7.70
2023-03-04T18:19:56.776Z,7.70
2023-03-04T18:22:46.491Z,7.70
2023-03-04T18:25:37.443Z,7.70
2023-03-04T18:28:26.688Z,7.60
2023-03-04T18:31:19.005Z,7.60
2023-03-04T18:34:08.362Z,7.70
2023-03-04T18:36:57.635Z,7.70
2023-03-04T18:39:46.974Z,7.70
2023-03-04T18:42:37.681Z,7.70
2023-03-04T18:45:27.363Z,7.70
2023-03-04T18:48:16.792Z,7.60
2023-03-04T18:51:06.902Z,7.70
2023-03-04T18:53:56.298Z,7.70
2023-03-04T18:56:49.994Z,7.60
2023-03-04T18:59:45.904Z,7.70
2023-03-04T19:02:42.858Z,7.60
2023-03-04T19:05:34.825Z,7.60
2023-03-04T19:08:24.487Z,7.60
2023-03-04T19:11:14.676Z,7.60
2023-03-04T19:14:04.389Z,7.50
2023-03-04T19:16:55.142Z,7.50
2023-03-04T19:19:44.717Z,7.50
2023-03-04T19:22:34.393Z,7.50
2023-03-04T19:25:23.794Z,7.50
2023-03-04T19:28:13.461Z,7.50
2023-03-04T19:31:07.121Z,7.50
2023-03-04T19:33:57.880Z,7.50
2023-03-04T19:36:47.258Z,7.50
2023-03-04T19:39:36.641Z,7.50
2023-03-04T19:42:25.981Z,7.40
2023-03-04T19:45:15.322Z,7.40
2023-03-04T19:48:05.324Z,7.40
2023-03-04T19:50:55.987Z,7.40
2023-03-04T19:53:45.669Z,7.40
2023-03-04T19:56:35.036Z,7.40
2023-03-04T19:59:24.635Z,7.30
2023-03-04T20:02:13.942Z,7.30
2023-03-04T20:05:03.360Z,7.20
2023-03-04T20:07:54.423Z,7.10
2023-03-04T20:10:43.778Z,7.10
2023-03-04T20:13:33.102Z,7.00
2023-03-04T20:16:22.612Z,7.00
2023-03-04T20:19:11.938Z,6.90
2023-03-04T20:22:01.439Z,6.90
2023-03-04T20:24:53.887Z,6.80
2023-03-04T20:27:43.244Z,6.80
2023-03-04T20:30:32.591Z,6.80
2023-03-04T20:33:22.255Z,6.80
2023-03-04T20:36:11.856Z,6.80
2023-03-04T20:39:03.543Z,6.80
2023-03-04T20:41:57.461Z,6.80
2023-03-04T20:44:46.829Z,6.80
2023-03-04T20:47:39.474Z,6.80
2023-03-04T20:50:29.054Z,6.80
2023-03-04T20:53:18.349Z,6.80
2023-03-04T20:56:07.828Z,6.80
2023-03-04T20:59:01.406Z,6.80
2023-03-04T21:01:52.053Z,6.80
2023-03-04T21:04:42.168Z,6.80
2023-03-04T21:07:31.748Z,6.70
2023-03-04T21:10:21.202Z,6.80
2023-03-04T21:13:12.723Z,6.80
2023-03-04T21:16:04.430Z,6.80
2023-03-04T21:18:55.361Z,6.80
2023-03-04T21:21:45.672Z,6.80
2023-03-04T21:24:39.431Z,6.80
2023-03-04T21:27:28.911Z,6.80
2023-03-04T21:30:18.756Z,6.70
2023-03-04T21:33:19.143Z,6.70
2023-03-04T21:36:10.255Z,6.70
2023-03-04T21:38:59.588Z,6.70
2023-03-04T21:41:49.731Z,6.70
2023-03-04T21:44:49.162Z,6.70
2023-03-04T21:47:39.294Z,6.70
2023-03-04T21:50:29.934Z,6.70
2023-03-04T21:53:21.825Z,6.70
2023-03-04T21:56:13.273Z,6.70
2023-03-04T21:59:02.944Z,6.70
2023-03-04T22:01:52.458Z,6.70
2023-03-04T22:04:41.887Z,6.70
2023-03-04T22:07:32.586Z,6.70
2023-03-04T22:10:21.855Z,6.70
2023-03-04T22:13:13.635Z,6.70
2023-03-04T22:16:03.273Z,6.70
2023-03-04T22:18:53.095Z,6.70
2023-03-04T22:21:42.395Z,6.70
2023-03-04T22:24:33.124Z,6.70
2023-03-04T22:27:22.493Z,6.70
2023-03-04T22:30:13.867Z,6.70
2023-03-04T22:33:04.233Z,6.70
2023-03-04T22:35:53.947Z,6.70
2023-03-04T22:38:44.553Z,6.60
2023-03-04T22:41:35.604Z,6.70
2023-03-04T22:44:25.206Z,6.60
2023-03-04T22:47:14.514Z,6.60
2023-03-04T22:50:04.019Z,6.50
2023-03-04T22:52:53.757Z,6.50
2023-03-04T22:55:43.061Z,6.50
2023-03-04T22:58:33.884Z,6.50
2023-03-04T23:01:23.407Z,6.40
2023-03-04T23:04:12.746Z,6.40
2023-03-04T23:07:02.059Z,6.40
2023-03-04T23:09:51.443Z,6.40
2023-03-04T23:12:41.009Z,6.40
2023-03-04T23:15:31.780Z,6.30
2023-03-04T23:18:21.117Z,6.30
2023-03-04T23:21:12.371Z,6.30
2023-03-04T23:24:02.512Z,6.30
2023-03-04T23:26:53.290Z,6.30
2023-03-04T23:29:42.643Z,6.30
2023-03-04T23:32:33.387Z,6.20
2023-03-04T23:35:22.823Z,6.30
2023-03-04T23:38:12.225Z,6.30
2023-03-04T23:41:01.580Z,6.20
2023-03-04T23:43:53.648Z,6.20
2023-03-04T23:46:43.202Z,6.20
2023-03-04T23:49:34.086Z,6.20
2023-03-04T23:52:23.354Z,6.20
2023-03-04T23:55:17.346Z,6.10
2023-03-04T23:58:06.716Z,6.10
